Kremlin, Montana
Current Conditions -  °F | °C
As of 12:53 PM on Saturday 25 Oct 2014 (Local Time) from KHVR Reporting Station
Clear Clear  
Wind Chill: 64°   Ceiling: Unl
Heat Index: 64°   Visibility: 10mi
Dew Point: 36°   Wind: 16mph
Humidity: 35%   Direction: 60°ENE
Pressure: 29.83"   Gusts: NA
Location:  48.57°N, 110.09°W
Report Text: KHVR 251853Z AUTO 06014KT 10SM CLR 18/02 A2983 RMK AO2 SLP102 T01780022 $
Loading
Personal Weather Stations






























Interactive Weather Map
Tropical Storm Tracking
New forecast layout! Learn more

10-Day Weather Forecast

Advertisements
Track Severe Weather on mobile